Time;durP1;ratioP1;P1;durP2;ratioP2;P2;SDS_P1;SDS_P2;PMS_P1;PMS_P2;Temp;Humidity;BMP_temperature;BMP_pressure;BME280_temperature;BME280_humidity;BME280_pressure;Samples;Min_cycle;Max_cycle;Signal;HPM_P1;HPM_P2
2022/03/05 00:00:59;;;;;;;32.33;16.65;;;4.30;99.90;;;;;;5039478;28;20032;-78
2022/03/05 00:03:25;;;;;;;35.25;17.23;;;4.20;99.90;;;;;;5042675;28;20057;-77
2022/03/05 00:05:50;;;;;;;34.85;17.13;;;4.20;99.90;;;;;;5038294;28;20045;-78
2022/03/05 00:08:16;;;;;;;34.70;16.83;;;4.10;99.90;;;;;;5024372;28;20041;-78
2022/03/05 00:10:42;;;;;;;31.45;17.15;;;4.10;99.90;;;;;;5037241;28;20029;-78
2022/03/05 00:13:08;;;;;;;30.08;15.43;;;4.10;99.90;;;;;;5037712;28;20033;-78
2022/03/05 00:15:34;;;;;;;29.42;16.83;;;4.10;99.90;;;;;;5031682;28;20114;-78
2022/03/05 00:18:01;;;;;;;30.80;15.93;;;4.00;99.90;;;;;;5035008;28;20080;-78
2022/03/05 00:20:27;;;;;;;34.03;17.02;;;4.00;99.90;;;;;;5029134;28;20509;-78
2022/03/05 00:22:53;;;;;;;36.67;19.38;;;4.00;99.90;;;;;;5036442;28;20042;-78
2022/03/05 00:25:24;;;;;;;35.08;16.67;;;4.00;99.90;;;;;;5026433;28;20037;-78
2022/03/05 00:27:51;;;;;;;39.67;19.00;;;3.90;99.90;;;;;;5032965;28;20026;-77
2022/03/05 00:30:16;;;;;;;35.17;19.35;;;3.90;99.90;;;;;;5036799;28;20026;-78
2022/03/05 00:32:44;;;;;;;35.28;18.65;;;3.80;99.90;;;;;;5028030;28;20029;-78
2022/03/05 00:35:10;;;;;;;38.50;20.35;;;3.90;99.90;;;;;;5031057;28;20087;-77
2022/03/05 00:37:36;;;;;;;44.22;21.90;;;3.90;99.90;;;;;;5027117;28;20090;-77
2022/03/05 00:40:03;;;;;;;43.72;19.85;;;3.80;99.90;;;;;;5035651;28;20120;-77
2022/03/05 00:42:29;;;;;;;41.03;20.60;;;3.80;99.90;;;;;;5034442;28;20033;-77
2022/03/05 00:44:55;;;;;;;36.75;19.58;;;3.80;99.90;;;;;;5026845;28;20024;-77
2022/03/05 00:47:20;;;;;;;38.42;20.83;;;3.70;99.90;;;;;;5034390;28;20109;-77
2022/03/05 00:49:46;;;;;;;37.58;19.25;;;3.70;99.90;;;;;;5043210;28;20028;-77
2022/03/05 00:52:12;;;;;;;37.92;17.77;;;3.70;99.90;;;;;;5034798;28;20483;-77
2022/03/05 00:54:37;;;;;;;38.50;19.55;;;3.70;99.90;;;;;;5036296;28;20034;-77
2022/03/05 00:57:03;;;;;;;45.05;20.65;;;3.70;99.90;;;;;;5046010;28;20025;-77
2022/03/05 00:59:29;;;;;;;42.38;20.38;;;3.70;99.90;;;;;;5039123;28;20029;-77
2022/03/05 01:01:55;;;;;;;40.20;19.17;;;3.60;99.90;;;;;;5023619;28;20025;-77
2022/03/05 01:04:21;;;;;;;41.45;19.88;;;3.60;99.90;;;;;;5036302;28;20028;-77
2022/03/05 01:06:47;;;;;;;35.67;19.80;;;3.60;99.90;;;;;;5049681;28;20040;-77
2022/03/05 01:09:12;;;;;;;41.92;19.42;;;3.60;99.90;;;;;;5034108;28;20025;-77
2022/03/05 01:11:38;;;;;;;41.22;21.35;;;3.60;99.90;;;;;;5037075;28;20033;-77
2022/03/05 01:14:04;;;;;;;34.20;18.67;;;3.60;99.90;;;;;;5051681;28;20025;-77
2022/03/05 01:16:30;;;;;;;44.13;20.27;;;3.60;99.90;;;;;;5039981;28;20033;-77
2022/03/05 01:18:56;;;;;;;39.20;18.83;;;3.60;99.90;;;;;;5044170;28;20029;-77
2022/03/05 01:21:21;;;;;;;39.60;18.02;;;3.60;99.90;;;;;;5044101;28;20048;-77
2022/03/05 01:23:47;;;;;;;37.85;17.83;;;3.60;99.90;;;;;;5041417;28;20057;-77
2022/03/05 01:26:13;;;;;;;39.13;18.48;;;3.50;99.90;;;;;;5041213;28;20481;-78
2022/03/05 01:28:39;;;;;;;35.00;18.17;;;3.50;99.90;;;;;;5046038;28;20032;-77
2022/03/05 01:31:05;;;;;;;37.55;19.25;;;3.50;99.90;;;;;;5042102;28;20703;-78
2022/03/05 01:33:30;;;;;;;36.95;18.05;;;3.50;99.90;;;;;;5037135;28;20065;-77
2022/03/05 01:35:56;;;;;;;40.22;19.15;;;3.40;99.90;;;;;;5031600;28;20437;-77
2022/03/05 01:38:22;;;;;;;37.80;19.08;;;3.40;99.90;;;;;;5043579;28;20025;-77
2022/03/05 01:40:48;;;;;;;41.75;19.98;;;3.40;99.90;;;;;;5034378;28;20076;-77
2022/03/05 01:43:14;;;;;;;39.85;19.30;;;3.40;99.90;;;;;;5044654;28;20021;-77
2022/03/05 01:45:40;;;;;;;45.88;20.48;;;3.40;99.90;;;;;;5044533;28;20048;-77
2022/03/05 01:48:06;;;;;;;39.55;20.33;;;3.40;99.90;;;;;;5044776;28;20037;-77
2022/03/05 01:50:33;;;;;;;41.50;19.75;;;3.30;99.90;;;;;;5047739;28;20040;-77
2022/03/05 01:52:59;;;;;;;45.30;21.67;;;3.40;99.90;;;;;;5040840;28;20053;-77
2022/03/05 01:55:25;;;;;;;42.72;20.13;;;3.40;99.90;;;;;;5048073;28;20390;-77
2022/03/05 01:57:51;;;;;;;40.78;19.48;;;3.40;99.90;;;;;;5034936;28;20017;-76
2022/03/05 02:00:18;;;;;;;41.92;19.73;;;3.30;99.90;;;;;;5036818;28;20485;-77
2022/03/05 02:02:45;;;;;;;42.75;20.10;;;3.30;99.90;;;;;;5040567;28;20469;-77
2022/03/05 02:05:11;;;;;;;47.33;20.45;;;3.20;99.90;;;;;;5042334;28;20539;-76
2022/03/05 02:07:37;;;;;;;42.90;20.63;;;3.20;99.90;;;;;;5047275;28;20481;-77
2022/03/05 02:10:04;;;;;;;42.13;19.38;;;3.20;99.90;;;;;;5042438;28;20021;-76
2022/03/05 02:12:31;;;;;;;40.75;19.67;;;3.00;99.90;;;;;;5045527;28;20017;-76
2022/03/05 02:14:58;;;;;;;43.00;20.35;;;3.10;99.90;;;;;;5044453;28;20038;-77
2022/03/05 02:17:25;;;;;;;41.85;21.45;;;3.10;99.90;;;;;;5039805;28;20099;-76
2022/03/05 02:19:50;;;;;;;41.92;19.98;;;3.10;99.90;;;;;;5029794;28;20080;-77
2022/03/05 02:22:17;;;;;;;37.60;19.38;;;3.10;99.90;;;;;;5036162;28;20030;-77
2022/03/05 02:24:42;;;;;;;45.45;21.52;;;3.10;99.90;;;;;;5033575;28;20029;-77
2022/03/05 02:27:08;;;;;;;43.92;20.40;;;3.10;99.90;;;;;;5028550;28;20029;-77
2022/03/05 02:29:35;;;;;;;42.03;19.30;;;3.00;99.90;;;;;;5039905;28;20037;-77
2022/03/05 02:32:02;;;;;;;38.22;19.73;;;3.00;99.90;;;;;;5028807;28;20474;-77
2022/03/05 02:34:29;;;;;;;42.83;20.33;;;3.00;99.90;;;;;;5037491;28;20111;-76
2022/03/05 02:36:54;;;;;;;44.75;19.60;;;3.00;99.90;;;;;;5025511;28;20049;-76
2022/03/05 02:39:24;;;;;;;42.75;20.73;;;3.00;99.90;;;;;;5041471;28;20057;-76
2022/03/05 02:41:50;;;;;;;44.13;21.52;;;3.00;99.90;;;;;;5048942;28;20021;-76
2022/03/05 02:44:16;;;;;;;43.08;20.90;;;3.00;99.90;;;;;;5036380;28;20029;-76
2022/03/05 02:46:42;;;;;;;46.65;20.25;;;2.90;99.90;;;;;;5037089;28;20028;-76
2022/03/05 02:49:07;;;;;;;41.30;20.10;;;2.90;99.90;;;;;;5039913;28;20125;-75
2022/03/05 02:51:33;;;;;;;41.15;19.20;;;2.90;99.90;;;;;;5043987;28;20075;-76
2022/03/05 02:53:59;;;;;;;41.00;20.58;;;2.90;99.90;;;;;;5030161;28;20533;-76
2022/03/05 02:56:24;;;;;;;47.65;20.48;;;2.80;99.90;;;;;;5038063;28;20032;-76
2022/03/05 02:58:50;;;;;;;46.65;20.10;;;2.80;99.90;;;;;;5034709;28;20061;-76
2022/03/05 03:01:16;;;;;;;41.38;20.65;;;2.80;99.90;;;;;;5053635;28;20473;-76
2022/03/05 03:03:41;;;;;;;47.10;22.13;;;2.80;99.90;;;;;;5040276;28;20025;-76
2022/03/05 03:06:07;;;;;;;43.78;20.42;;;2.80;99.90;;;;;;5038239;28;20033;-76
2022/03/05 03:08:33;;;;;;;45.58;21.45;;;2.80;99.90;;;;;;5045522;28;20026;-76
2022/03/05 03:10:59;;;;;;;40.85;20.73;;;2.70;99.90;;;;;;5042920;28;20037;-76
2022/03/05 03:13:25;;;;;;;45.53;19.90;;;2.70;99.90;;;;;;5030166;28;20017;-76
2022/03/05 03:15:50;;;;;;;41.10;20.23;;;2.80;99.90;;;;;;5038366;28;20040;-76
2022/03/05 03:18:17;;;;;;;48.95;20.10;;;2.70;99.90;;;;;;5050594;28;20162;-76
2022/03/05 03:20:43;;;;;;;47.17;21.98;;;2.70;99.90;;;;;;5048098;28;20029;-77
2022/03/05 03:23:09;;;;;;;45.05;20.70;;;2.70;99.90;;;;;;5040640;28;20021;-75
2022/03/05 03:25:35;;;;;;;45.10;21.27;;;2.70;99.90;;;;;;5034100;28;20808;-76
2022/03/05 03:28:01;;;;;;;45.30;22.60;;;2.70;99.90;;;;;;5032125;28;20033;-76
2022/03/05 03:30:26;;;;;;;44.40;21.10;;;2.70;99.90;;;;;;5038025;28;20026;-76
2022/03/05 03:32:52;;;;;;;44.10;21.33;;;2.60;99.90;;;;;;5037971;28;20506;-76
2022/03/05 03:35:19;;;;;;;46.97;22.00;;;2.60;99.90;;;;;;5043392;28;20033;-76
2022/03/05 03:37:45;;;;;;;45.97;20.75;;;2.60;99.90;;;;;;5042339;28;20045;-76
2022/03/05 03:40:13;;;;;;;47.65;21.88;;;2.50;99.90;;;;;;5032910;28;20021;-76
2022/03/05 03:42:39;;;;;;;46.08;20.27;;;2.60;99.90;;;;;;5030198;28;20014;-76
2022/03/05 03:45:06;;;;;;;43.05;20.52;;;2.50;99.90;;;;;;5047191;28;20028;-76
2022/03/05 03:47:32;;;;;;;42.38;20.15;;;2.50;99.90;;;;;;5044835;28;20024;-77
2022/03/05 03:49:57;;;;;;;45.92;21.08;;;2.50;99.90;;;;;;5037126;28;20446;-76
2022/03/05 03:52:23;;;;;;;44.67;20.38;;;2.50;99.90;;;;;;5037329;28;20059;-76
2022/03/05 03:54:49;;;;;;;39.83;19.42;;;2.50;99.90;;;;;;5048263;28;20041;-76
2022/03/05 03:57:15;;;;;;;39.88;20.02;;;2.40;99.90;;;;;;5035084;28;20094;-77
2022/03/05 03:59:41;;;;;;;47.78;21.25;;;2.40;99.90;;;;;;5035305;28;20417;-76
2022/03/05 04:02:07;;;;;;;45.05;21.27;;;2.40;99.90;;;;;;5039524;28;20032;-76
2022/03/05 04:04:32;;;;;;;41.72;19.42;;;2.40;99.90;;;;;;5047670;28;20077;-76
2022/03/05 04:09:42;;;;;;;45.75;20.77;;;2.40;99.90;;;;;;5030369;28;20057;-77
2022/03/05 04:12:08;;;;;;;43.03;18.67;;;2.30;99.90;;;;;;5046153;28;20021;-76
2022/03/05 04:14:35;;;;;;;38.83;19.27;;;2.30;99.90;;;;;;5039701;28;20504;-76
2022/03/05 04:17:01;;;;;;;42.13;19.48;;;2.30;99.90;;;;;;5042375;28;20464;-76
2022/03/05 04:19:27;;;;;;;42.47;19.95;;;2.30;99.90;;;;;;5048344;28;20024;-76
2022/03/05 04:21:52;;;;;;;40.45;19.70;;;2.30;99.90;;;;;;5028121;28;20029;-76
2022/03/05 04:24:18;;;;;;;44.53;20.38;;;2.20;99.90;;;;;;5034372;28;20037;-76
2022/03/05 04:26:44;;;;;;;42.97;21.48;;;2.30;99.90;;;;;;5035872;28;20495;-76
2022/03/05 04:29:09;;;;;;;45.60;20.10;;;2.20;99.90;;;;;;5035469;28;20470;-76
2022/03/05 04:31:35;;;;;;;39.33;19.67;;;2.20;99.90;;;;;;5025805;28;20445;-76
2022/03/05 04:34:02;;;;;;;41.15;19.20;;;2.20;99.90;;;;;;5030910;28;20439;-76
2022/03/05 04:36:27;;;;;;;44.42;20.67;;;2.20;99.90;;;;;;5039263;28;20057;-76
2022/03/05 04:38:53;;;;;;;50.70;21.33;;;2.10;99.90;;;;;;5041471;28;20374;-76
2022/03/05 04:41:19;;;;;;;47.58;21.05;;;2.00;99.90;;;;;;5034695;28;20072;-76
2022/03/05 04:43:44;;;;;;;49.92;22.17;;;2.10;99.90;;;;;;5029656;28;20090;-76
2022/03/05 04:46:12;;;;;;;43.92;22.00;;;2.00;99.90;;;;;;5030780;28;20037;-76
2022/03/05 04:48:37;;;;;;;45.28;20.48;;;2.00;99.90;;;;;;5030275;28;20037;-76
2022/03/05 04:51:03;;;;;;;43.80;20.25;;;2.10;99.90;;;;;;5030824;28;20042;-76
2022/03/05 04:53:29;;;;;;;46.47;20.48;;;2.00;99.90;;;;;;5031975;28;20059;-76
2022/03/05 04:55:54;;;;;;;44.67;21.90;;;2.10;99.90;;;;;;5026121;28;20037;-76
2022/03/05 04:58:20;;;;;;;41.42;20.00;;;2.00;99.90;;;;;;5033884;28;20033;-76
2022/03/05 05:00:46;;;;;;;44.72;20.02;;;2.00;99.90;;;;;;5030755;28;20040;-76
2022/03/05 05:03:12;;;;;;;43.03;20.10;;;2.00;99.90;;;;;;5037239;28;20022;-76
2022/03/05 05:05:38;;;;;;;46.92;21.10;;;1.90;99.90;;;;;;5036165;28;20029;-76
2022/03/05 05:08:04;;;;;;;49.05;21.80;;;1.90;99.90;;;;;;5032208;28;20036;-76
2022/03/05 05:10:30;;;;;;;46.22;21.15;;;1.90;99.90;;;;;;5033527;28;20021;-76
2022/03/05 05:12:56;;;;;;;48.28;20.27;;;1.90;99.90;;;;;;5036356;28;20079;-76
2022/03/05 05:15:22;;;;;;;42.30;20.10;;;1.90;99.90;;;;;;5035330;28;20493;-76
2022/03/05 05:17:48;;;;;;;48.80;21.33;;;1.90;99.90;;;;;;5040262;28;20057;-77
2022/03/05 05:20:14;;;;;;;52.00;21.60;;;1.90;99.90;;;;;;5027918;28;20056;-76
2022/03/05 05:22:40;;;;;;;43.55;20.13;;;1.80;99.90;;;;;;5040429;28;20034;-76
2022/03/05 05:25:07;;;;;;;44.67;20.73;;;1.80;99.90;;;;;;5043338;28;20111;-76
2022/03/05 05:27:37;;;;;;;45.63;20.63;;;1.80;99.90;;;;;;5031013;28;20074;-76
2022/03/05 05:30:04;;;;;;;47.08;20.88;;;1.70;99.90;;;;;;5037176;28;20029;-77
2022/03/05 05:32:30;;;;;;;44.95;20.63;;;1.60;99.90;;;;;;5027306;28;20031;-76
2022/03/05 05:34:56;;;;;;;42.58;19.52;;;1.60;99.90;;;;;;5036868;28;20112;-76
2022/03/05 05:37:21;;;;;;;48.95;21.30;;;1.60;99.90;;;;;;5025008;28;20558;-76
2022/03/05 05:39:47;;;;;;;46.03;19.90;;;1.50;99.90;;;;;;5037441;28;20021;-76
2022/03/05 05:42:13;;;;;;;42.50;18.33;;;1.50;99.90;;;;;;5046804;28;20474;-76
2022/03/05 05:44:38;;;;;;;44.45;19.67;;;1.50;99.90;;;;;;5040048;28;20053;-76
2022/03/05 05:47:04;;;;;;;41.17;19.70;;;1.50;99.90;;;;;;5044357;28;20386;-76
2022/03/05 05:49:30;;;;;;;45.72;19.58;;;1.50;99.90;;;;;;5035232;28;20044;-76
2022/03/05 05:51:56;;;;;;;46.88;20.13;;;1.50;99.90;;;;;;5033483;28;20025;-76
2022/03/05 05:54:23;;;;;;;47.13;20.40;;;1.50;99.90;;;;;;5039399;28;20037;-76
2022/03/05 05:56:49;;;;;;;43.17;18.98;;;1.50;99.90;;;;;;5039715;28;20022;-76
2022/03/05 05:59:16;;;;;;;44.22;18.98;;;1.50;99.90;;;;;;5046033;28;20033;-77
2022/03/05 06:01:42;;;;;;;46.25;19.05;;;1.50;99.90;;;;;;5041701;28;20068;-76
2022/03/05 06:04:07;;;;;;;42.60;19.65;;;1.50;99.90;;;;;;5039843;28;20030;-76
2022/03/05 06:06:33;;;;;;;43.45;20.08;;;1.50;99.90;;;;;;5035439;28;20037;-76
2022/03/05 06:08:59;;;;;;;47.80;20.33;;;1.50;99.90;;;;;;5031693;28;20057;-76
2022/03/05 06:11:24;;;;;;;41.20;18.75;;;1.50;99.90;;;;;;5031378;28;20112;-76
2022/03/05 06:13:50;;;;;;;45.78;19.80;;;1.40;99.90;;;;;;5028874;28;20056;-76
2022/03/05 06:16:16;;;;;;;46.97;20.58;;;1.40;99.90;;;;;;5035397;28;20094;-76
2022/03/05 06:18:41;;;;;;;45.45;18.77;;;1.40;99.90;;;;;;5037465;28;20201;-77
2022/03/05 06:21:08;;;;;;;50.17;21.35;;;1.30;99.90;;;;;;5032125;28;20021;-76
2022/03/05 06:23:35;;;;;;;52.08;21.00;;;1.30;99.90;;;;;;5045689;28;20028;-76
2022/03/05 06:26:01;;;;;;;50.30;21.05;;;1.30;99.90;;;;;;5036803;28;20115;-76
2022/03/05 06:28:27;;;;;;;41.10;18.30;;;1.30;99.90;;;;;;5028495;28;20037;-76
2022/03/05 06:30:53;;;;;;;43.63;18.95;;;1.30;99.90;;;;;;5039961;28;20029;-76
2022/03/05 06:33:19;;;;;;;46.00;19.92;;;1.30;99.90;;;;;;5042027;28;20024;-76
2022/03/05 06:35:45;;;;;;;46.92;20.92;;;1.30;99.90;;;;;;5042340;28;20033;-76
2022/03/05 06:38:11;;;;;;;46.40;21.30;;;1.30;99.90;;;;;;5052357;28;20018;-77
2022/03/05 06:40:37;;;;;;;48.80;20.63;;;1.30;99.90;;;;;;5046058;28;20481;-76
2022/03/05 06:43:03;;;;;;;45.53;21.20;;;1.30;99.90;;;;;;5041864;28;20017;-76
2022/03/05 06:45:29;;;;;;;46.63;20.85;;;1.20;99.90;;;;;;5046567;28;20048;-76
2022/03/05 06:47:55;;;;;;;47.67;20.35;;;1.20;99.90;;;;;;5038727;28;20035;-77
2022/03/05 06:50:21;;;;;;;45.42;20.63;;;1.20;99.90;;;;;;5036100;28;20024;-76
2022/03/05 06:52:47;;;;;;;41.78;20.00;;;1.20;99.90;;;;;;5036915;28;20029;-76
2022/03/05 06:55:14;;;;;;;46.40;19.63;;;1.20;99.90;;;;;;5038253;28;20033;-76
2022/03/05 06:57:44;;;;;;;47.85;20.52;;;1.30;99.90;;;;;;5031779;28;20016;-76
2022/03/05 07:00:12;;;;;;;45.42;19.75;;;1.20;99.90;;;;;;5045579;28;20533;-76
2022/03/05 07:02:38;;;;;;;50.65;21.77;;;1.20;99.90;;;;;;5041161;28;20025;-76
2022/03/05 07:05:05;;;;;;;49.53;22.70;;;1.20;99.90;;;;;;5040955;28;20058;-77
2022/03/05 07:07:30;;;;;;;54.78;22.92;;;1.20;99.90;;;;;;5047238;28;20021;-76
2022/03/05 07:09:56;;;;;;;47.97;22.30;;;1.20;99.90;;;;;;5040845;28;20104;-76
2022/03/05 07:12:22;;;;;;;48.63;22.58;;;1.20;99.90;;;;;;5050368;28;20029;-76
2022/03/05 07:14:49;;;;;;;47.67;21.10;;;1.20;99.90;;;;;;5041064;28;20037;-76
2022/03/05 07:17:15;;;;;;;48.55;22.08;;;1.20;99.90;;;;;;5035822;28;20017;-76
2022/03/05 07:19:41;;;;;;;52.47;22.70;;;1.30;99.90;;;;;;5042947;28;20024;-76
2022/03/05 07:22:07;;;;;;;48.05;21.98;;;1.30;99.90;;;;;;5031170;28;20022;-76
2022/03/05 07:24:33;;;;;;;56.85;23.77;;;1.20;99.90;;;;;;5032261;28;20071;-76
2022/03/05 07:26:58;;;;;;;46.17;22.13;;;1.30;99.90;;;;;;5036842;28;20363;-77
2022/03/05 07:29:24;;;;;;;51.38;22.73;;;1.40;99.90;;;;;;5038538;28;20033;-77
2022/03/05 07:31:50;;;;;;;57.88;23.65;;;1.40;99.90;;;;;;5037796;28;20183;-76
2022/03/05 07:34:15;;;;;;;49.13;23.08;;;1.50;99.90;;;;;;5039967;28;20021;-77
2022/03/05 07:36:41;;;;;;;47.58;21.52;;;1.60;99.90;;;;;;5029301;28;20100;-77
2022/03/05 07:39:08;;;;;;;50.90;21.85;;;1.50;99.90;;;;;;5028485;28;20386;-77
2022/03/05 07:41:36;;;;;;;59.42;24.65;;;1.50;99.90;;;;;;5037185;28;20041;-76
2022/03/05 07:44:02;;;;;;;50.90;21.48;;;1.60;99.90;;;;;;5028609;28;20039;-79
2022/03/05 07:46:28;;;;;;;54.25;22.35;;;1.60;99.90;;;;;;5039449;28;20032;-76
2022/03/05 07:48:54;;;;;;;50.92;22.17;;;1.60;99.90;;;;;;5039444;28;20028;-76
2022/03/05 07:51:20;;;;;;;52.50;22.35;;;1.60;99.90;;;;;;5023774;28;20025;-77
2022/03/05 07:53:46;;;;;;;52.67;23.67;;;1.60;99.90;;;;;;5040793;28;20025;-77
2022/03/05 07:56:12;;;;;;;64.55;25.95;;;1.70;99.90;;;;;;5032606;28;20140;-78
2022/03/05 07:58:37;;;;;;;57.53;25.15;;;1.80;99.90;;;;;;5026431;28;20029;-79
2022/03/05 08:01:03;;;;;;;61.33;27.77;;;1.90;99.90;;;;;;5039772;28;20068;-78
2022/03/05 08:03:29;;;;;;;66.55;26.38;;;2.00;99.90;;;;;;5032376;28;20405;-78
2022/03/05 08:05:54;;;;;;;64.05;25.60;;;2.10;99.90;;;;;;5029224;28;20028;-78
2022/03/05 08:08:20;;;;;;;66.55;27.73;;;2.20;99.90;;;;;;5024387;28;20021;-76
2022/03/05 08:10:46;;;;;;;67.50;28.17;;;2.30;99.90;;;;;;5025094;28;20024;-77
2022/03/05 08:13:12;;;;;;;63.88;27.15;;;2.40;99.90;;;;;;5037878;28;20500;-76
2022/03/05 08:15:38;;;;;;;63.33;23.73;;;2.60;99.90;;;;;;5039901;28;20067;-76
2022/03/05 08:18:04;;;;;;;63.83;26.85;;;2.60;99.90;;;;;;5040747;28;20017;-75
2022/03/05 08:20:30;;;;;;;65.00;28.20;;;2.60;99.90;;;;;;5046353;28;20372;-75
2022/03/05 08:22:57;;;;;;;69.88;28.48;;;2.70;99.90;;;;;;5025999;28;20029;-77
2022/03/05 08:25:24;;;;;;;65.03;27.73;;;2.90;99.90;;;;;;5037194;28;20025;-78
2022/03/05 08:27:50;;;;;;;60.40;26.05;;;3.10;99.90;;;;;;5031660;28;20048;-78
2022/03/05 08:30:16;;;;;;;57.95;27.73;;;3.30;99.90;;;;;;5037174;28;20093;-78
2022/03/05 08:32:43;;;;;;;64.55;27.88;;;3.50;99.90;;;;;;5034050;28;20112;-78
2022/03/05 08:35:09;;;;;;;59.92;27.98;;;3.60;99.90;;;;;;5036849;28;20401;-78
2022/03/05 08:37:36;;;;;;;58.63;26.45;;;3.80;99.90;;;;;;5025131;28;20032;-77
2022/03/05 08:40:03;;;;;;;64.38;26.85;;;3.80;99.90;;;;;;5029561;28;20493;-78
2022/03/05 08:42:28;;;;;;;62.50;27.05;;;3.80;99.90;;;;;;5036094;28;20020;-80
2022/03/05 08:44:54;;;;;;;61.80;28.20;;;4.00;99.90;;;;;;5040561;28;20017;-79
2022/03/05 08:47:20;;;;;;;61.53;26.33;;;4.20;99.90;;;;;;5032595;28;20513;-77
2022/03/05 08:49:45;;;;;;;65.78;29.08;;;4.20;99.90;;;;;;5035265;28;20032;-77
2022/03/05 08:52:11;;;;;;;62.00;28.48;;;4.30;99.90;;;;;;5030091;28;20036;-79
2022/03/05 08:54:37;;;;;;;58.83;26.25;;;4.50;99.90;;;;;;5032702;28;20029;-79
2022/03/05 08:57:03;;;;;;;61.15;28.10;;;4.50;99.90;;;;;;5033084;28;20063;-81
2022/03/05 08:59:29;;;;;;;62.08;28.90;;;4.60;99.90;;;;;;5032230;28;20475;-78
2022/03/05 09:01:54;;;;;;;55.95;26.67;;;4.70;99.90;;;;;;5034124;28;20084;-80
2022/03/05 09:04:20;;;;;;;60.25;26.55;;;5.00;99.90;;;;;;5027457;28;20104;-79
2022/03/05 09:06:46;;;;;;;61.83;26.40;;;5.00;99.90;;;;;;5030859;28;20057;-78
2022/03/05 09:09:12;;;;;;;61.72;26.38;;;5.20;99.90;;;;;;5033863;28;20596;-77
2022/03/05 09:11:39;;;;;;;60.25;25.92;;;5.30;99.90;;;;;;5037018;28;20886;-77
2022/03/05 09:14:06;;;;;;;59.90;26.35;;;5.40;99.90;;;;;;5034642;28;20029;-80
2022/03/05 09:16:32;;;;;;;59.00;26.33;;;5.50;99.90;;;;;;5031874;28;20477;-78
2022/03/05 09:18:58;;;;;;;59.83;27.83;;;5.60;99.90;;;;;;5042697;28;20053;-78
2022/03/05 09:21:23;;;;;;;57.35;27.42;;;5.80;99.90;;;;;;5030744;28;20056;-78
2022/03/05 09:23:49;;;;;;;48.40;24.55;;;6.00;99.90;;;;;;5038843;28;20419;-76
2022/03/05 09:26:15;;;;;;;54.92;26.00;;;6.20;99.90;;;;;;5033967;28;20533;-76
2022/03/05 09:28:41;;;;;;;53.30;26.48;;;6.30;99.90;;;;;;5035520;28;20034;-76
2022/03/05 09:31:07;;;;;;;53.08;25.92;;;6.50;99.90;;;;;;5029507;28;20031;-76
2022/03/05 09:33:32;;;;;;;54.10;26.23;;;6.50;99.90;;;;;;5044127;28;20029;-77
2022/03/05 09:35:58;;;;;;;57.28;25.45;;;6.60;99.90;;;;;;5041520;28;20044;-77
2022/03/05 09:38:24;;;;;;;54.42;26.55;;;6.70;99.90;;;;;;5038565;28;20537;-77
2022/03/05 09:40:50;;;;;;;53.78;28.30;;;6.60;99.90;;;;;;5034163;28;20108;-78
2022/03/05 09:43:19;;;;;;;50.25;25.58;;;6.70;99.90;;;;;;5035966;28;20362;-77
2022/03/05 09:45:45;;;;;;;49.28;23.98;;;6.90;99.90;;;;;;5038342;28;20038;-76
2022/03/05 09:48:18;;;;;;;49.72;25.73;;;7.10;99.90;;;;;;5037558;28;20034;-78
2022/03/05 09:50:44;;;;;;;;;;;7.30;99.90;;;;;;5044707;28;20104;-75
2022/03/05 09:53:10;;;;;;;48.75;23.85;;;7.50;99.90;;;;;;5034617;28;20000;-78
2022/03/05 09:55:36;;;;;;;50.80;26.02;;;7.50;99.90;;;;;;5033603;28;20538;-79
2022/03/05 09:58:01;;;;;;;50.72;25.52;;;7.70;99.90;;;;;;5046036;28;20037;-80
2022/03/05 10:00:27;;;;;;;52.75;26.88;;;7.80;99.90;;;;;;5047329;28;20042;-77
2022/03/05 10:02:53;;;;;;;50.70;25.75;;;7.80;99.90;;;;;;5049194;28;20025;-80
2022/03/05 10:05:26;;;;;;;51.85;25.73;;;8.00;99.90;;;;;;5046060;28;20461;-78
2022/03/05 10:08:15;;;;;;;47.80;25.50;;;8.00;99.90;;;;;;5046157;28;20382;-78
2022/03/05 10:10:49;;;;;;;52.20;26.40;;;8.10;99.90;;;;;;5044494;28;20455;-77
2022/03/05 10:13:18;;;;;;;54.00;25.80;;;8.20;99.90;;;;;;5036111;28;20033;-76
2022/03/05 10:15:45;;;;;;;50.05;24.63;;;8.20;99.90;;;;;;5033974;28;20021;-79
2022/03/05 10:18:11;;;;;;;46.33;24.27;;;8.40;99.90;;;;;;5042957;28;20385;-77
2022/03/05 10:20:50;;;;;;;49.42;24.20;;;8.30;99.90;;;;;;5033809;28;20033;-74
2022/03/05 10:23:17;;;;;;;47.70;24.20;;;8.60;99.90;;;;;;5023862;28;20022;-79
2022/03/05 10:25:49;;;;;;;51.55;25.25;;;8.60;99.90;;;;;;5035833;28;20488;-77
2022/03/05 10:28:18;;;;;;;48.25;25.85;;;8.70;99.90;;;;;;5025221;28;20037;-82
2022/03/05 10:31:08;;;;;;;52.70;29.38;;;8.80;99.90;;;;;;5031590;28;20037;-83
2022/03/05 10:33:45;;;;;;;47.40;26.95;;;8.70;99.90;;;;;;5041053;28;20038;-76
2022/03/05 10:36:25;;;;;;;51.10;26.83;;;9.00;99.90;;;;;;5039338;28;20069;-80
2022/03/05 10:38:55;;;;;;;46.00;24.80;;;9.00;99.90;;;;;;5036083;28;20029;-80
2022/03/05 10:41:40;;;;;;;48.85;26.20;;;9.20;99.60;;;;;;5035339;28;20032;-79
2022/03/05 10:44:15;;;;;;;46.97;25.48;;;9.30;99.00;;;;;;5044711;28;20032;-80
2022/03/05 10:46:59;;;;;;;52.22;26.27;;;9.20;98.70;;;;;;5051311;28;20059;-75
2022/03/05 10:49:33;;;;;;;49.30;27.08;;;9.20;99.10;;;;;;5036687;28;20033;-76
2022/03/05 10:52:02;;;;;;;46.88;25.05;;;9.40;99.90;;;;;;5033187;28;20474;-76
2022/03/05 10:54:48;;;;;;;48.85;27.05;;;9.50;99.10;;;;;;5040268;28;20041;-76
2022/03/05 10:57:16;;;;;;;51.30;27.67;;;9.50;98.60;;;;;;5046503;28;20036;-77
2022/03/05 10:59:44;;;;;;;50.17;28.42;;;9.50;97.00;;;;;;5038670;28;20025;-75
2022/03/05 11:02:12;;;;;;;47.97;26.08;;;9.50;97.40;;;;;;5037128;28;20440;-76
2022/03/05 11:04:45;;;;;;;47.88;25.95;;;9.50;97.90;;;;;;5027190;28;20029;-77
2022/03/05 11:07:12;;;;;;;46.42;25.35;;;9.60;97.40;;;;;;5038192;28;20048;-76
2022/03/05 11:09:42;;;;;;;48.25;28.13;;;9.60;97.70;;;;;;5037180;28;20042;-76
2022/03/05 11:12:09;;;;;;;50.67;26.95;;;9.70;97.40;;;;;;5029653;28;20033;-76
2022/03/05 11:14:36;;;;;;;47.72;26.90;;;9.70;99.40;;;;;;5044661;28;20025;-76
2022/03/05 11:17:04;;;;;;;48.72;25.60;;;9.90;98.70;;;;;;5034057;28;20043;-76
2022/03/05 11:19:30;;;;;;;48.25;27.58;;;10.00;97.80;;;;;;5032133;28;20397;-77
2022/03/05 11:21:57;;;;;;;46.72;27.15;;;10.10;96.90;;;;;;5043623;28;20029;-77
2022/03/05 11:24:24;;;;;;;49.75;27.75;;;10.00;96.40;;;;;;5040084;28;20029;-76
2022/03/05 11:26:52;;;;;;;45.38;26.48;;;10.10;95.60;;;;;;5033349;28;20056;-77
2022/03/05 11:29:19;;;;;;;44.78;25.92;;;10.20;94.90;;;;;;5041500;28;20493;-76
2022/03/05 11:31:47;;;;;;;43.45;26.67;;;10.20;95.60;;;;;;5037496;28;20600;-77
2022/03/05 11:34:15;;;;;;;50.42;27.98;;;10.40;95.60;;;;;;5031466;28;20029;-76
2022/03/05 11:36:42;;;;;;;49.15;25.77;;;10.40;95.20;;;;;;5035272;28;20104;-77
2022/03/05 11:39:08;;;;;;;47.80;27.30;;;10.50;95.60;;;;;;5032503;28;20029;-76
2022/03/05 11:41:51;;;;;;;46.80;24.60;;;10.50;96.00;;;;;;5035398;28;20109;-77
2022/03/05 11:44:18;;;;;;;48.47;27.13;;;10.50;96.40;;;;;;5032421;28;20024;-78
2022/03/05 11:46:44;;;;;;;43.63;25.70;;;10.60;95.80;;;;;;5039585;28;20405;-79
2022/03/05 11:49:12;;;;;;;45.88;26.52;;;10.80;96.50;;;;;;5035830;28;20026;-73
2022/03/05 11:52:10;;;;;;;47.05;26.15;;;10.70;94.60;;;;;;5034468;28;20033;-80
2022/03/05 11:54:35;;;;;;;52.63;27.13;;;10.80;96.10;;;;;;5066149;28;20033;-80
2022/03/05 11:57:14;;;;;;;39.50;23.38;;;10.90;96.40;;;;;;5043890;28;20029;-81
2022/03/05 11:59:41;;;;;;;46.55;27.00;;;11.00;96.80;;;;;;5022922;28;20028;-80
2022/03/05 12:02:07;;;;;;;44.72;26.30;;;11.00;93.60;;;;;;5035075;28;20041;-80
2022/03/05 12:04:33;;;;;;;45.72;26.38;;;11.20;93.60;;;;;;5044469;28;20480;-83
2022/03/05 12:07:03;;;;;;;46.78;28.73;;;11.10;92.90;;;;;;5039147;28;20033;-82
2022/03/05 12:09:44;;;;;;;46.40;27.60;;;10.90;92.50;;;;;;5024887;28;20993;-75
2022/03/05 12:12:15;;;;;;;47.20;26.35;;;10.80;94.00;;;;;;5028109;28;20032;-82
2022/03/05 12:14:59;;;;;;;43.65;25.38;;;11.00;92.80;;;;;;5043946;28;20078;-81
2022/03/05 12:17:39;;;;;;;42.15;25.73;;;11.10;93.70;;;;;;5039979;28;20392;-86
2022/03/05 12:20:07;;;;;;;44.42;24.70;;;11.20;93.70;;;;;;5029630;28;20049;-80
2022/03/05 12:22:33;;;;;;;46.20;28.00;;;11.00;93.60;;;;;;5044952;28;20035;-80
2022/03/05 12:24:58;;;;;;;51.33;27.63;;;10.80;92.50;;;;;;5032284;28;20026;-81
2022/03/05 12:27:28;;;;;;;48.90;27.38;;;10.80;92.10;;;;;;5025396;28;20026;-82
2022/03/05 12:29:54;;;;;;;44.67;24.80;;;10.90;93.10;;;;;;5044604;28;20484;-82
2022/03/05 12:32:29;;;;;;;51.53;27.42;;;11.00;92.30;;;;;;5040951;28;20033;-81
2022/03/05 12:35:05;;;;;;;43.83;25.45;;;11.10;93.10;;;;;;5036514;28;20041;-81
2022/03/05 12:37:32;;;;;;;46.92;26.75;;;11.20;93.70;;;;;;5041719;28;20024;-83